| time (UTC) | temp C | wind direction | speed KPH | gust KPH | rain 1hr cm | rain 24hr cm | rain mn cm | humidity % | barometer mb |
| 20260508194003 | 26 | 257 | 4.8 | 6.4 | 0.00 | 0.00 | 0.00 | 40 | 1015.1 |
| 20260508193459 | 26 | 203 | 4.8 | 6.4 | 0.00 | 0.00 | 0.00 | 39 | 1015.0 |
| 20260508192955 | 26 | 244 | 6.4 | 8.0 | 0.00 | 0.00 | 0.00 | 40 | 1015.1 |
| 20260508192452 | 26 | 265 | 6.4 | 8.0 | 0.00 | 0.00 | 0.00 | 39 | 1014.9 |
| 20260508191949 | 26 | 217 | 1.6 | 1.6 | 0.00 | 0.00 | 0.00 | 40 | 1015.0 |
| 20260508191446 | 26 | 240 | 4.8 | 6.4 | 0.00 | 0.00 | 0.00 | 40 | 1014.9 |
| 20260508190943 | 26 | 260 | 4.8 | 6.4 | 0.00 | 0.00 | 0.00 | 42 | 1015.0 |
| 20260508190441 | 26 | 242 | 4.8 | 6.4 | 0.00 | 0.00 | 0.00 | 42 | 1015.1 |
| 20260508185936 | 26 | 245 | 8.0 | 9.7 | 0.00 | 0.00 | 0.00 | 42 | 1015.2 |
| 20260508185434 | 25 | 245 | 3.2 | 6.4 | 0.00 | 0.00 | 0.00 | 44 | 1015.1 |
| 20260508184931 | 25 | 273 | 8.0 | 11.3 | 0.00 | 0.00 | 0.00 | 42 | 1015.4 |
| 20260508184429 | 25 | 251 | 9.7 | 11.3 | 0.00 | 0.00 | 0.00 | 43 | 1015.3 |
| 20260508183925 | 25 | 239 | 6.4 | 8.0 | 0.00 | 0.00 | 0.00 | 43 | 1015.6 |
| 20260508183422 | 25 | 256 | 4.8 | 8.0 | 0.00 | 0.00 | 0.00 | 45 | 1015.5 |
| 20260508182917 | 25 | 276 | 3.2 | 3.2 | 0.00 | 0.00 | 0.00 | 45 | 1015.5 |
| 20260508182415 | 25 | 266 | 1.6 | 1.6 | 0.00 | 0.00 | 0.00 | 45 | 1015.6 |
| 20260508181909 | 25 | 208 | 3.2 | 3.2 | 0.00 | 0.00 | 0.00 | 47 | 1015.6 |
| 20260508181407 | 25 | 244 | 3.2 | 3.2 | 0.00 | 0.00 | 0.00 | 47 | 1015.6 |
| 20260508180904 | 25 | 260 | 3.2 | 6.4 | 0.00 | 0.00 | 0.00 | 48 | 1015.6 |
| 20260508180401 | 24 | 236 | 3.2 | 3.2 | 0.00 | 0.00 | 0.00 | 50 | 1015.8 |
| 20260508175856 | 24 | 273 | 8.0 | 11.3 | 0.00 | 0.00 | 0.00 | 49 | 1015.8 |
| 20260508175353 | 23 | 299 | 3.2 | 6.4 | 0.00 | 0.00 | 0.00 | 51 | 1015.9 |
| 20260508174851 | 23 | 271 | 4.8 | 8.0 | 0.00 | 0.00 | 0.00 | 51 | 1016.0 |
| 20260508174348 | 23 | 297 | 3.2 | 3.2 | 0.00 | 0.00 | 0.00 | 51 | 1015.9 |
| 20260508173845 | 23 | 256 | 6.4 | 8.0 | 0.00 | 0.00 | 0.00 | 52 | 1015.9 |
| 20260508173342 | 23 | 274 | 3.2 | 6.4 | 0.00 | 0.00 | 0.00 | 53 | 1015.8 |
| 20260508172838 | 22 | 254 | 8.0 | 11.3 | 0.00 | 0.00 | 0.00 | 55 | 1015.7 |
| 20260508172335 | 22 | 268 | 4.8 | 8.0 | 0.00 | 0.00 | 0.00 | 55 | 1015.9 |
| 20260508171831 | 22 | 318 | 3.2 | 3.2 | 0.00 | 0.00 | 0.00 | 55 | 1016.0 |
| 20260508171328 | 22 | 255 | 6.4 | 6.4 | 0.00 | 0.00 | 0.00 | 56 | 1016.0 |
| 20260508170825 | 22 | 260 | 1.6 | 1.6 | 0.00 | 0.00 | 0.00 | 58 | 1015.9 |
| 20260508170323 | 21 | 306 | 1.6 | 3.2 | 0.00 | 0.00 | 0.00 | 58 | 1015.8 |
| 20260508165819 | 21 | 271 | 1.6 | 1.6 | 0.00 | 0.00 | 0.00 | 58 | 1015.8 |
| 20260508165317 | 21 | 312 | 3.2 | 3.2 | 0.00 | 0.00 | 0.00 | 58 | 1015.8 |
| 20260508164812 | 21 | 278 | 6.4 | 8.0 | 0.00 | 0.00 | 0.00 | 59 | 1015.9 |
| 20260508164309 | 20 | 247 | 4.8 | 6.4 | 0.00 | 0.00 | 0.00 | 60 | 1016.0 |
| 20260508163808 | 21 | 235 | 3.2 | 3.2 | 0.00 | 0.00 | 0.00 | 59 | 1015.9 |
| 20260508163305 | 20 | 195 | 3.2 | 6.4 | 0.00 | 0.00 | 0.00 | 60 | 1016.0 |
| 20260508162801 | 20 | 250 | 8.0 | 9.7 | 0.00 | 0.00 | 0.00 | 62 | 1016.0 |
| 20260508162257 | 20 | 281 | 8.0 | 9.7 | 0.00 | 0.00 | 0.00 | 62 | 1016.0 |
| 20260508161754 | 20 | 267 | 8.0 | 9.7 | 0.00 | 0.00 | 0.00 | 62 | 1016.0 |
| 20260508161252 | 20 | 285 | 3.2 | 3.2 | 0.00 | 0.00 | 0.00 | 64 | 1015.9 |
| 20260508160749 | 20 | 253 | 4.8 | 6.4 | 0.00 | 0.00 | 0.00 | 64 | 1016.1 |
| 20260508160247 | 19 | 306 | 1.6 | 1.6 | 0.00 | 0.00 | 0.00 | 65 | 1016.2 |
| 20260508155744 | 19 | 271 | 3.2 | 3.2 | 0.00 | 0.00 | 0.00 | 66 | 1016.1 |
| 20260508155241 | 18 | 267 | 1.6 | 1.6 | 0.00 | 0.00 | 0.00 | 67 | 1015.9 |
| 20260508154737 | 18 | 250 | 4.8 | 6.4 | 0.00 | 0.00 | 0.00 | 67 | 1016.1 |
| 20260508154235 | 18 | 260 | 4.8 | 6.4 | 0.00 | 0.00 | 0.00 | 68 | 1016.1 |
| 20260508153726 | 18 | 242 | 3.2 | 3.2 | 0.00 | 0.00 | 0.00 | 69 | 1016.1 |
| 20260508153223 | 17 | 265 | 1.6 | 3.2 | 0.00 | 0.00 | 0.00 | 71 | 1016.4 |
| 20260508152720 | 17 | 271 | 1.6 | 3.2 | 0.00 | 0.00 | 0.00 | 72 | 1016.1 |
| 20260508152215 | 16 | 246 | 3.2 | 6.4 | 0.00 | 0.00 | 0.00 | 73 | 1016.0 |
| 20260508151712 | 16 | 266 | 3.2 | 6.4 | 0.00 | 0.00 | 0.00 | 74 | 1015.9 |
| 20260508151209 | 16 | 261 | 8.0 | 8.0 | 0.00 | 0.00 | 0.00 | 74 | 1016.3 |
| 20260508150706 | 16 | 241 | 4.8 | 6.4 | 0.00 | 0.00 | 0.00 | 74 | 1015.8 |
| 20260508150203 | 16 | 271 | 1.6 | 1.6 | 0.00 | 0.00 | 0.00 | 75 | 1016.1 |
| 20260508145658 | 16 | 258 | 1.6 | 1.6 | 0.00 | 0.00 | 0.00 | 75 | 1016.1 |
| 20260508145154 | 15 | 259 | 3.2 | 3.2 | 0.00 | 0.00 | 0.00 | 75 | 1016.0 |
| 20260508144652 | 15 | 60 | 0.0 | 0.0 | 0.00 | 0.00 | 0.00 | 76 | 1016.0 |
| 20260508144150 | 15 | 267 | 3.2 | 3.2 | 0.00 | 0.00 | 0.00 | 77 | 1016.0 |
| 20260508143647 | 15 | 259 | 1.6 | 1.6 | 0.00 | 0.00 | 0.00 | 77 | 1016.1 |
| 20260508143144 | 15 | 241 | 1.6 | 3.2 | 0.00 | 0.00 | 0.00 | 77 | 1016.0 |
| 20260508142640 | 15 | 265 | 6.4 | 8.0 | 0.00 | 0.00 | 0.00 | 77 | 1015.8 |
| 20260508142137 | 15 | 249 | 4.8 | 6.4 | 0.00 | 0.00 | 0.00 | 77 | 1015.8 |
| 20260508141633 | 15 | 257 | 1.6 | 1.6 | 0.00 | 0.00 | 0.00 | 77 | 1015.7 |
| 20260508141131 | 15 | 269 | 1.6 | 1.6 | 0.00 | 0.00 | 0.00 | 77 | 1015.7 |
| 20260508140629 | 15 | 322 | 1.6 | 1.6 | 0.00 | 0.00 | 0.00 | 79 | 1015.6 |
| 20260508140125 | 14 | 258 | 4.8 | 6.4 | 0.00 | 0.00 | 0.00 | 80 | 1015.3 |
| 20260508135620 | 14 | 291 | 3.2 | 3.2 | 0.00 | 0.00 | 0.00 | 80 | 1015.4 |
| 20260508135117 | 13 | 277 | 3.2 | 3.2 | 0.00 | 0.00 | 0.00 | 82 | 1015.4 |
| 20260508134614 | 13 | 301 | 1.6 | 1.6 | 0.00 | 0.00 | 0.00 | 82 | 1015.5 |
| 20260508134111 | 13 | 25 | 0.0 | 0.0 | 0.00 | 0.00 | 0.00 | 82 | 1015.2 |
| 20260508133607 | 13 | 35 | 0.0 | 0.0 | 0.00 | 0.00 | 0.00 | 81 | 1015.2 |
| 20260508133105 | 13 | 39 | 0.0 | 0.0 | 0.00 | 0.00 | 0.00 | 82 | 1015.3 |
| 20260508132603 | 13 | 51 | 0.0 | 0.0 | 0.00 | 0.00 | 0.00 | 81 | 1015.1 |
| 20260508132059 | 13 | 51 | 0.0 | 0.0 | 0.00 | 0.00 | 0.00 | 81 | 1015.2 |
| 20260508131554 | 13 | 51 | 0.0 | 0.0 | 0.00 | 0.00 | 0.00 | 81 | 1015.1 |
| 20260508131052 | 13 | 51 | 0.0 | 0.0 | 0.00 | 0.00 | 0.00 | 81 | 1014.9 |
| 20260508130548 | 13 | 52 | 0.0 | 0.0 | 0.00 | 0.00 | 0.00 | 81 | 1015.0 |
| 20260508130045 | 13 | 52 | 0.0 | 0.0 | 0.00 | 0.00 | 0.00 | 80 | 1015.1 |
| 20260508125540 | 13 | 52 | 0.0 | 0.0 | 0.00 | 0.00 | 0.00 | 80 | 1014.9 |
| 20260508125038 | 13 | 52 | 0.0 | 0.0 | 0.00 | 0.00 | 0.00 | 80 | 1014.9 |
| 20260508124536 | 13 | 52 | 0.0 | 1.6 | 0.00 | 0.00 | 0.00 | 80 | 1014.8 |
| 20260508124033 | 13 | 50 | 0.0 | 0.0 | 0.00 | 0.00 | 0.00 | 80 | 1014.7 |
| 20260508123532 | 13 | 36 | 0.0 | 0.0 | 0.00 | 0.00 | 0.00 | 80 | 1014.8 |
| 20260508123028 | 13 | 35 | 0.0 | 0.0 | 0.00 | 0.00 | 0.00 | 79 | 1014.6 |
| 20260508122525 | 14 | 38 | 0.0 | 1.6 | 0.00 | 0.00 | 0.00 | 79 | 1014.8 |
| 20260508122022 | 14 | 38 | 1.6 | 1.6 | 0.00 | 0.00 | 0.00 | 79 | 1014.7 |
| 20260508121520 | 15 | 33 | 0.0 | 1.6 | 0.00 | 0.00 | 0.00 | 79 | 1014.6 |
| 20260508121018 | 15 | 340 | 0.0 | 0.0 | 0.00 | 0.00 | 0.00 | 79 | 1014.5 |
| 20260508120515 | 15 | 1 | 0.0 | 0.0 | 0.00 | 0.00 | 0.00 | 79 | 1014.5 |
| 20260508120013 | 15 | 274 | 1.6 | 1.6 | 0.00 | 0.00 | 0.00 | 79 | 1014.7 |
| 20260508115510 | 15 | 330 | 0.0 | 0.0 | 0.00 | 0.00 | 0.00 | 78 | 1014.6 |
| 20260508115007 | 14 | 242 | 0.0 | 1.6 | 0.00 | 0.00 | 0.00 | 79 | 1014.7 |
| 20260508114504 | 14 | 261 | 1.6 | 3.2 | 0.00 | 0.00 | 0.00 | 80 | 1014.7 |
| 20260508114000 | 14 | 40 | 0.0 | 0.0 | 0.00 | 0.00 | 0.00 | 81 | 1014.7 |
| 20260508113458 | 14 | 43 | 0.0 | 0.0 | 0.00 | 0.00 | 0.00 | 81 | 1014.7 |
| 20260508112955 | 14 | 44 | 0.0 | 0.0 | 0.00 | 0.00 | 0.00 | 81 | 1014.8 |
| 20260508112451 | 14 | 50 | 0.0 | 0.0 | 0.00 | 0.00 | 0.00 | 81 | 1014.7 |
| 20260508111948 | 14 | 51 | 0.0 | 0.0 | 0.00 | 0.00 | 0.00 | 81 | 1014.7 |
| 20260508111445 | 14 | 39 | 0.0 | 0.0 | 0.00 | 0.00 | 0.00 | 81 | 1014.7 |
| 20260508110942 | 14 | 40 | 0.0 | 0.0 | 0.00 | 0.00 | 0.00 | 82 | 1014.6 |
| 20260508110440 | 14 | 60 | 0.0 | 0.0 | 0.00 | 0.00 | 0.00 | 82 | 1014.5 |
| 20260508105939 | 14 | 45 | 0.0 | 0.0 | 0.00 | 0.00 | 0.00 | 83 | 1014.6 |
| 20260508105436 | 15 | 43 | 0.0 | 0.0 | 0.00 | 0.00 | 0.00 | 83 | 1014.7 |
| 20260508104933 | 15 | 43 | 0.0 | 0.0 | 0.00 | 0.00 | 0.00 | 83 | 1014.5 |
| 20260508104431 | 15 | 43 | 0.0 | 0.0 | 0.00 | 0.00 | 0.00 | 83 | 1014.5 |
| 20260508103927 | 15 | 42 | 0.0 | 0.0 | 0.00 | 0.00 | 0.00 | 83 | 1014.5 |
| 20260508103424 | 15 | 27 | 0.0 | 0.0 | 0.00 | 0.00 | 0.00 | 83 | 1014.7 |
| 20260508102921 | 15 | 26 | 0.0 | 0.0 | 0.00 | 0.00 | 0.00 | 82 | 1014.3 |
| 20260508102420 | 15 | 26 | 0.0 | 0.0 | 0.00 | 0.00 | 0.00 | 82 | 1014.4 |
| 20260508101917 | 16 | 13 | 0.0 | 0.0 | 0.00 | 0.00 | 0.00 | 81 | 1014.5 |
| 20260508101414 | 16 | 312 | 0.0 | 0.0 | 0.00 | 0.00 | 0.00 | 81 | 1014.2 |
| 20260508100911 | 16 | 312 | 0.0 | 0.0 | 0.00 | 0.00 | 0.00 | 80 | 1014.5 |
| 20260508100410 | 16 | 2 | 0.0 | 0.0 | 0.00 | 0.00 | 0.00 | 80 | 1014.2 |
| 20260508095905 | 16 | 257 | 0.0 | 0.0 | 0.00 | 0.00 | 0.00 | 80 | 1014.2 |
| 20260508095403 | 16 | 297 | 1.6 | 1.6 | 0.00 | 0.00 | 0.00 | 80 | 1014.2 |
| 20260508094900 | 16 | 264 | 1.6 | 1.6 | 0.00 | 0.00 | 0.00 | 81 | 1014.2 |
| 20260508094356 | 16 | 294 | 0.0 | 0.0 | 0.00 | 0.00 | 0.00 | 81 | 1014.3 |
| 20260508093853 | 16 | 315 | 0.0 | 0.0 | 0.00 | 0.00 | 0.00 | 82 | 1014.1 |
| 20260508093351 | 16 | 315 | 0.0 | 0.0 | 0.00 | 0.00 | 0.00 | 81 | 1014.4 |
| 20260508092848 | 17 | 315 | 0.0 | 0.0 | 0.00 | 0.00 | 0.00 | 81 | 1014.0 |
| 20260508092346 | 17 | 315 | 0.0 | 0.0 | 0.00 | 0.00 | 0.00 | 80 | 1014.1 |
| 20260508091844 | 17 | 254 | 1.6 | 1.6 | 0.00 | 0.00 | 0.00 | 80 | 1014.2 |
| 20260508091340 | 17 | 11 | 0.0 | 0.0 | 0.00 | 0.00 | 0.00 | 79 | 1014.0 |
| 20260508090838 | 17 | 282 | 0.0 | 1.6 | 0.00 | 0.00 | 0.00 | 79 | 1014.1 |
| 20260508090337 | 17 | 37 | 0.0 | 0.0 | 0.00 | 0.00 | 0.00 | 78 | 1014.1 |
| 20260508085832 | 17 | 24 | 0.0 | 1.6 | 0.00 | 0.00 | 0.00 | 78 | 1014.1 |
| 20260508085329 | 17 | 355 | 1.6 | 1.6 | 0.00 | 0.00 | 0.00 | 78 | 1014.3 |
| 20260508084825 | 18 | 294 | 0.0 | 0.0 | 0.00 | 0.00 | 0.00 | 77 | 1014.0 |
| 20260508084322 | 18 | 32 | 0.0 | 0.0 | 0.00 | 0.00 | 0.00 | 76 | 1014.2 |
| 20260508083820 | 18 | 269 | 3.2 | 3.2 | 0.00 | 0.00 | 0.00 | 75 | 1014.2 |
| 20260508083317 | 18 | 266 | 3.2 | 3.2 | 0.00 | 0.00 | 0.00 | 75 | 1014.4 |
| 20260508082817 | 18 | 280 | 3.2 | 3.2 | 0.00 | 0.00 | 0.00 | 76 | 1014.2 |
| 20260508082315 | 18 | 306 | 3.2 | 6.4 | 0.00 | 0.00 | 0.00 | 76 | 1014.4 |
| 20260508081812 | 18 | 276 | 1.6 | 1.6 | 0.00 | 0.00 | 0.00 | 76 | 1014.4 |
| 20260508081309 | 18 | 293 | 1.6 | 1.6 | 0.00 | 0.00 | 0.00 | 75 | 1014.2 |
| 20260508080806 | 18 | 260 | 4.8 | 6.4 | 0.00 | 0.00 | 0.00 | 74 | 1014.3 |
| 20260508080304 | 18 | 267 | 3.2 | 3.2 | 0.00 | 0.00 | 0.00 | 73 | 1014.4 |
| 20260508075800 | 18 | 255 | 4.8 | 6.4 | 0.00 | 0.00 | 0.00 | 73 | 1014.4 |
| 20260508075257 | 19 | 252 | 3.2 | 3.2 | 0.00 | 0.00 | 0.00 | 73 | 1014.2 |
| 20260508074755 | 19 | 274 | 1.6 | 1.6 | 0.00 | 0.00 | 0.00 | 73 | 1014.3 |
| 20260508074251 | 18 | 256 | 3.2 | 3.2 | 0.00 | 0.00 | 0.00 | 75 | 1014.3 |
| 20260508073749 | 19 | 279 | 1.6 | 1.6 | 0.00 | 0.00 | 0.00 | 75 | 1014.3 |
| 20260508073247 | 19 | 262 | 3.2 | 3.2 | 0.00 | 0.00 | 0.00 | 76 | 1014.3 |
| 20260508072742 | 19 | 269 | 1.6 | 1.6 | 0.00 | 0.00 | 0.00 | 76 | 1014.3 |
| 20260508072239 | 19 | 275 | 0.0 | 0.0 | 0.00 | 0.00 | 0.00 | 75 | 1014.2 |
| 20260508071737 | 18 | 337 | 0.0 | 0.0 | 0.00 | 0.00 | 0.00 | 76 | 1014.2 |
| 20260508071235 | 19 | 46 | 0.0 | 0.0 | 0.00 | 0.00 | 0.00 | 76 | 1014.2 |
| 20260508070732 | 19 | 348 | 0.0 | 0.0 | 0.00 | 0.00 | 0.00 | 75 | 1013.9 |
| 20260508070231 | 19 | 259 | 0.0 | 0.0 | 0.00 | 0.00 | 0.00 | 75 | 1014.2 |
| 20260508065727 | 19 | 32 | 0.0 | 0.0 | 0.00 | 0.00 | 0.00 | 76 | 1014.2 |
| 20260508065225 | 19 | 41 | 0.0 | 0.0 | 0.00 | 0.00 | 0.00 | 76 | 1014.3 |
| 20260508064723 | 19 | 41 | 0.0 | 0.0 | 0.00 | 0.00 | 0.00 | 76 | 1014.2 |
| 20260508064221 | 19 | 45 | 0.0 | 0.0 | 0.00 | 0.00 | 0.00 | 75 | 1014.1 |
| 20260508063718 | 20 | 45 | 0.0 | 0.0 | 0.00 | 0.00 | 0.00 | 75 | 1014.2 |
| 20260508063216 | 20 | 44 | 0.0 | 1.6 | 0.00 | 0.00 | 0.00 | 74 | 1014.1 |
| 20260508062713 | 20 | 53 | 0.0 | 0.0 | 0.00 | 0.00 | 0.00 | 74 | 1014.1 |
| 20260508062210 | 20 | 72 | 0.0 | 1.6 | 0.00 | 0.00 | 0.00 | 73 | 1014.0 |
| 20260508061707 | 20 | 61 | 0.0 | 1.6 | 0.00 | 0.00 | 0.00 | 73 | 1014.0 |
| 20260508061205 | 20 | 42 | 0.0 | 0.0 | 0.00 | 0.00 | 0.00 | 72 | 1013.8 |
| 20260508060702 | 20 | 39 | 0.0 | 0.0 | 0.00 | 0.00 | 0.00 | 72 | 1013.9 |
| 20260508060158 | 20 | 279 | 0.0 | 0.0 | 0.00 | 0.00 | 0.00 | 72 | 1014.0 |
| 20260508055654 | 20 | 250 | 3.2 | 3.2 | 0.00 | 0.00 | 0.00 | 71 | 1014.1 |
| 20260508055151 | 20 | 350 | 0.0 | 0.0 | 0.00 | 0.00 | 0.00 | 71 | 1014.0 |
| 20260508054647 | 20 | 346 | 0.0 | 0.0 | 0.00 | 0.00 | 0.00 | 71 | 1013.9 |
| 20260508054145 | 20 | 294 | 0.0 | 0.0 | 0.00 | 0.00 | 0.00 | 70 | 1014.0 |
| 20260508053642 | 21 | 317 | 0.0 | 0.0 | 0.00 | 0.00 | 0.00 | 70 | 1013.9 |
| 20260508053139 | 21 | 231 | 0.0 | 0.0 | 0.00 | 0.00 | 0.00 | 70 | 1014.0 |
| 20260508052637 | 21 | 231 | 1.6 | 1.6 | 0.00 | 0.00 | 0.00 | 70 | 1014.0 |
| 20260508052134 | 21 | 327 | 0.0 | 0.0 | 0.00 | 0.00 | 0.00 | 70 | 1013.9 |
| 20260508051629 | 21 | 329 | 0.0 | 1.6 | 0.00 | 0.00 | 0.00 | 69 | 1013.9 |
| 20260508051125 | 21 | 1 | 0.0 | 0.0 | 0.00 | 0.00 | 0.00 | 69 | 1013.9 |
| 20260508050621 | 21 | 40 | 0.0 | 0.0 | 0.00 | 0.00 | 0.00 | 68 | 1013.8 |
| 20260508050119 | 21 | 37 | 0.0 | 0.0 | 0.00 | 0.00 | 0.00 | 68 | 1014.1 |
| 20260508045615 | 21 | 351 | 0.0 | 1.6 | 0.00 | 0.00 | 0.00 | 68 | 1013.9 |
| 20260508045113 | 21 | 40 | 0.0 | 0.0 | 0.00 | 0.00 | 0.00 | 68 | 1014.1 |
| 20260508044610 | 21 | 19 | 0.0 | 0.0 | 0.00 | 0.00 | 0.00 | 68 | 1014.0 |
| 20260508044106 | 21 | 62 | 0.0 | 0.0 | 0.00 | 0.00 | 0.00 | 68 | 1014.1 |
| 20260508043603 | 21 | 62 | 0.0 | 0.0 | 0.00 | 0.00 | 0.00 | 67 | 1013.9 |
| 20260508043100 | 22 | 68 | 0.0 | 0.0 | 0.00 | 0.00 | 0.00 | 67 | 1013.9 |
| 20260508042557 | 22 | 22 | 0.0 | 0.0 | 0.00 | 0.00 | 0.00 | 66 | 1013.9 |
| 20260508042054 | 22 | 55 | 0.0 | 0.0 | 0.00 | 0.00 | 0.00 | 66 | 1013.8 |
| 20260508041550 | 22 | 105 | 1.6 | 1.6 | 0.00 | 0.00 | 0.00 | 66 | 1013.7 |
| 20260508041047 | 22 | 240 | 0.0 | 0.0 | 0.00 | 0.00 | 0.00 | 65 | 1013.6 |
| 20260508040544 | 23 | 241 | 1.6 | 1.6 | 0.00 | 0.00 | 0.00 | 64 | 1013.5 |
| 20260508040042 | 23 | 243 | 1.6 | 1.6 | 0.00 | 0.00 | 0.00 | 64 | 1013.4 |
| 20260508035538 | 23 | 247 | 1.6 | 1.6 | 0.00 | 0.00 | 0.00 | 63 | 1013.4 |
| 20260508035035 | 23 | 244 | 3.2 | 3.2 | 0.00 | 0.00 | 0.00 | 62 | 1013.4 |
| 20260508034532 | 23 | 237 | 1.6 | 3.2 | 0.00 | 0.00 | 0.00 | 62 | 1013.2 |
| 20260508034029 | 23 | 237 | 1.6 | 1.6 | 0.00 | 0.00 | 0.00 | 61 | 1013.3 |
| 20260508033527 | 23 | 257 | 1.6 | 1.6 | 0.00 | 0.00 | 0.00 | 61 | 1013.3 |
| 20260508033025 | 23 | 241 | 0.0 | 0.0 | 0.00 | 0.00 | 0.00 | 60 | 1013.3 |
| 20260508032521 | 24 | 240 | 3.2 | 3.2 | 0.00 | 0.00 | 0.00 | 59 | 1013.0 |
| 20260508032019 | 24 | 237 | 1.6 | 3.2 | 0.00 | 0.00 | 0.00 | 59 | 1013.1 |
| 20260508031516 | 25 | 252 | 0.0 | 1.6 | 0.00 | 0.00 | 0.00 | 58 | 1013.1 |
| 20260508031011 | 25 | 238 | 0.0 | 0.0 | 0.00 | 0.00 | 0.00 | 58 | 1012.9 |
| 20260508030509 | 25 | 269 | 0.0 | 0.0 | 0.00 | 0.00 | 0.00 | 57 | 1013.0 |
| 20260508030007 | 25 | 271 | 0.0 | 0.0 | 0.00 | 0.00 | 0.00 | 56 | 1012.7 |
| 20260508025502 | 25 | 273 | 0.0 | 0.0 | 0.00 | 0.00 | 0.00 | 56 | 1012.7 |
| 20260508024959 | 26 | 269 | 0.0 | 0.0 | 0.00 | 0.00 | 0.00 | 54 | 1012.8 |
| 20260508024455 | 26 | 264 | 1.6 | 1.6 | 0.00 | 0.00 | 0.00 | 53 | 1012.6 |
| 20260508023952 | 26 | 305 | 0.0 | 0.0 | 0.00 | 0.00 | 0.00 | 52 | 1012.6 |
| 20260508023449 | 27 | 244 | 1.6 | 3.2 | 0.00 | 0.00 | 0.00 | 51 | 1012.6 |
| 20260508022946 | 27 | 266 | 1.6 | 1.6 | 0.00 | 0.00 | 0.00 | 50 | 1012.5 |
| 20260508022442 | 27 | 269 | 1.6 | 1.6 | 0.00 | 0.00 | 0.00 | 49 | 1012.5 |
| 20260508021939 | 27 | 269 | 3.2 | 3.2 | 0.00 | 0.00 | 0.00 | 48 | 1012.4 |
| 20260508021435 | 28 | 309 | 4.8 | 6.4 | 0.00 | 0.00 | 0.00 | 47 | 1012.6 |
| 20260508020931 | 28 | 250 | 4.8 | 6.4 | 0.00 | 0.00 | 0.00 | 46 | 1012.6 |
| 20260508020429 | 28 | 284 | 8.0 | 11.3 | 0.00 | 0.00 | 0.00 | 46 | 1012.6 |
| 20260508015926 | 28 | 277 | 6.4 | 6.4 | 0.00 | 0.00 | 0.00 | 45 | 1012.6 |
| 20260508015424 | 28 | 252 | 9.7 | 11.3 | 0.00 | 0.00 | 0.00 | 44 | 1012.5 |
| 20260508014920 | 28 | 274 | 9.7 | 11.3 | 0.00 | 0.00 | 0.00 | 44 | 1012.5 |
| 20260508014417 | 28 | 264 | 3.2 | 3.2 | 0.00 | 0.00 | 0.00 | 44 | 1012.4 |
| 20260508013912 | 29 | 256 | 6.4 | 8.0 | 0.00 | 0.00 | 0.00 | 43 | 1012.4 |
| 20260508013408 | 29 | 262 | 1.6 | 3.2 | 0.00 | 0.00 | 0.00 | 44 | 1012.3 |
| 20260508012906 | 29 | 266 | 6.4 | 8.0 | 0.00 | 0.00 | 0.00 | 43 | 1012.4 |
| 20260508012403 | 29 | 263 | 1.6 | 3.2 | 0.00 | 0.00 | 0.00 | 42 | 1012.2 |
| 20260508011901 | 29 | 288 | 6.4 | 8.0 | 0.00 | 0.00 | 0.00 | 42 | 1012.3 |
| 20260508011359 | 30 | 261 | 8.0 | 9.7 | 0.00 | 0.00 | 0.00 | 41 | 1012.3 |
| 20260508010855 | 30 | 263 | 4.8 | 6.4 | 0.00 | 0.00 | 0.00 | 41 | 1012.4 |
| 20260508010353 | 30 | 266 | 4.8 | 8.0 | 0.00 | 0.00 | 0.00 | 41 | 1012.3 |
| 20260508005850 | 30 | 280 | 3.2 | 6.4 | 0.00 | 0.00 | 0.00 | 41 | 1012.6 |
| 20260508005346 | 30 | 262 | 4.8 | 8.0 | 0.00 | 0.00 | 0.00 | 40 | 1012.4 |
| 20260508004843 | 30 | 271 | 3.2 | 8.0 | 0.00 | 0.00 | 0.00 | 42 | 1012.6 |
| 20260508004339 | 30 | 238 | 3.2 | 6.4 | 0.00 | 0.00 | 0.00 | 41 | 1012.5 |
| 20260508003835 | 30 | 282 | 4.8 | 6.4 | 0.00 | 0.00 | 0.00 | 41 | 1012.4 |
| 20260508003333 | 30 | 249 | 8.0 | 9.7 | 0.00 | 0.00 | 0.00 | 40 | 1012.6 |
| 20260508002830 | 30 | 274 | 6.4 | 9.7 | 0.00 | 0.00 | 0.00 | 39 | 1012.6 |
| 20260508002326 | 30 | 247 | 6.4 | 9.7 | 0.00 | 0.00 | 0.00 | 40 | 1012.6 |
| 20260508001823 | 30 | 249 | 6.4 | 9.7 | 0.00 | 0.00 | 0.00 | 40 | 1012.9 |
| 20260508001319 | 30 | 304 | 4.8 | 6.4 | 0.00 | 0.00 | 0.00 | 41 | 1012.6 |
| 20260508000815 | 30 | 302 | 3.2 | 3.2 | 0.00 | 0.00 | 0.00 | 41 | 1012.8 |
| 20260508000312 | 30 | 264 | 6.4 | 8.0 | 0.00 | 0.00 | 0.00 | 41 | 1012.8 |
| 20260507235808 | 30 | 266 | 6.4 | 8.0 | 0.00 | 0.00 | 0.00 | 40 | 1012.7 |
| 20260507235307 | 30 | 263 | 6.4 | 8.0 | 0.00 | 0.00 | 0.00 | 41 | 1012.8 |
| 20260507234803 | 30 | 282 | 6.4 | 9.7 | 0.00 | 0.00 | 0.00 | 41 | 1012.8 |
| 20260507234259 | 30 | 260 | 3.2 | 6.4 | 0.00 | 0.00 | 0.00 | 40 | 1013.1 |
| 20260507233755 | 30 | 263 | 3.2 | 6.4 | 0.00 | 0.00 | 0.00 | 41 | 1013.0 |
| 20260507233253 | 30 | 250 | 8.0 | 9.7 | 0.00 | 0.00 | 0.00 | 40 | 1013.0 |
| 20260507232751 | 29 | 257 | 4.8 | 8.0 | 0.00 | 0.00 | 0.00 | 42 | 1013.1 |
| 20260507232247 | 30 | 248 | 9.7 | 11.3 | 0.00 | 0.00 | 0.00 | 40 | 1013.2 |
| 20260507231744 | 29 | 243 | 4.8 | 8.0 | 0.00 | 0.00 | 0.00 | 41 | 1013.2 |
| 20260507231241 | 30 | 251 | 4.8 | 6.4 | 0.00 | 0.00 | 0.00 | 41 | 1013.0 |
| 20260507230737 | 30 | 273 | 8.0 | 9.7 | 0.00 | 0.00 | 0.00 | 41 | 1013.1 |
| 20260507230235 | 30 | 247 | 4.8 | 6.4 | 0.00 | 0.00 | 0.00 | 39 | 1013.3 |
| 20260507225734 | 29 | 289 | 3.2 | 3.2 | 0.00 | 0.00 | 0.00 | 41 | 1013.4 |
| 20260507225231 | 29 | 254 | 6.4 | 8.0 | 0.00 | 0.00 | 0.00 | 40 | 1013.5 |
| 20260507224727 | 30 | 269 | 4.8 | 6.4 | 0.00 | 0.00 | 0.00 | 39 | 1013.5 |
| 20260507224224 | 29 | 348 | 3.2 | 3.2 | 0.00 | 0.00 | 0.00 | 39 | 1013.6 |
| 20260507223720 | 28 | 231 | 4.8 | 6.4 | 0.00 | 0.00 | 0.00 | 40 | 1013.6 |
| 20260507223217 | 28 | 253 | 1.6 | 3.2 | 0.00 | 0.00 | 0.00 | 40 | 1013.8 |
| 20260507222714 | 29 | 258 | 4.8 | 8.0 | 0.00 | 0.00 | 0.00 | 39 | 1014.0 |
| 20260507222210 | 28 | 277 | 4.8 | 6.4 | 0.00 | 0.00 | 0.00 | 39 | 1013.8 |
| 20260507221707 | 29 | 247 | 4.8 | 8.0 | 0.00 | 0.00 | 0.00 | 40 | 1013.9 |
| 20260507221203 | 29 | 287 | 1.6 | 1.6 | 0.00 | 0.00 | 0.00 | 40 | 1014.0 |
| 20260507220700 | 29 | 286 | 3.2 | 3.2 | 0.00 | 0.00 | 0.00 | 40 | 1014.3 |
| 20260507220158 | 29 | 254 | 3.2 | 3.2 | 0.00 | 0.00 | 0.00 | 39 | 1014.3 |
| 20260507215654 | 28 | 233 | 1.6 | 1.6 | 0.00 | 0.00 | 0.00 | 40 | 1014.4 |
| 20260507215152 | 28 | 39 | 1.6 | 1.6 | 0.00 | 0.00 | 0.00 | 40 | 1014.4 |
| 20260507214649 | 29 | 75 | 1.6 | 3.2 | 0.00 | 0.00 | 0.00 | 38 | 1014.3 |
| 20260507214145 | 28 | 264 | 4.8 | 6.4 | 0.00 | 0.00 | 0.00 | 39 | 1014.5 |
| 20260507213641 | 28 | 260 | 4.8 | 8.0 | 0.00 | 0.00 | 0.00 | 40 | 1014.6 |
| 20260507213138 | 28 | 44 | 1.6 | 3.2 | 0.00 | 0.00 | 0.00 | 39 | 1014.7 |
| 20260507212634 | 28 | 267 | 1.6 | 1.6 | 0.00 | 0.00 | 0.00 | 39 | 1014.6 |
| 20260507212131 | 28 | 249 | 4.8 | 6.4 | 0.00 | 0.00 | 0.00 | 41 | 1015.0 |
| 20260507211628 | 28 | 42 | 1.6 | 1.6 | 0.00 | 0.00 | 0.00 | 41 | 1014.7 |
| 20260507211124 | 28 | 298 | 0.0 | 0.0 | 0.00 | 0.00 | 0.00 | 41 | 1014.9 |
| 20260507210622 | 28 | 178 | 4.8 | 6.4 | 0.00 | 0.00 | 0.00 | 39 | 1015.0 |
| 20260507210118 | 28 | 253 | 6.4 | 8.0 | 0.00 | 0.00 | 0.00 | 38 | 1015.0 |
| 20260507205615 | 28 | 107 | 1.6 | 1.6 | 0.00 | 0.00 | 0.00 | 39 | 1015.1 |
| 20260507205111 | 27 | 242 | 0.0 | 0.0 | 0.00 | 0.00 | 0.00 | 41 | 1015.3 |
| 20260507204607 | 27 | 250 | 3.2 | 3.2 | 0.00 | 0.00 | 0.00 | 41 | 1015.1 |
| 20260507204105 | 27 | 20 | 1.6 | 1.6 | 0.00 | 0.00 | 0.00 | 40 | 1015.1 |
| 20260507203603 | 28 | 240 | 3.2 | 3.2 | 0.00 | 0.00 | 0.00 | 42 | 1015.4 |
| 20260507203100 | 28 | 45 | 3.2 | 3.2 | 0.00 | 0.00 | 0.00 | 40 | 1015.4 |
| 20260507202555 | 27 | 341 | 0.0 | 1.6 | 0.00 | 0.00 | 0.00 | 41 | 1015.6 |
| 20260507202052 | 27 | 234 | 3.2 | 3.2 | 0.00 | 0.00 | 0.00 | 43 | 1015.4 |
| 20260507201547 | 27 | 255 | 6.4 | 9.7 | 0.00 | 0.00 | 0.00 | 46 | 1015.5 |
| 20260507201044 | 27 | 236 | 1.6 | 1.6 | 0.00 | 0.00 | 0.00 | 44 | 1015.7 |
| 20260507200540 | 27 | 37 | 3.2 | 3.2 | 0.00 | 0.00 | 0.00 | 41 | 1015.6 |
| 20260507200036 | 27 | 341 | 3.2 | 6.4 | 0.00 | 0.00 | 0.00 | 42 | 1015.6 |
| 20260507195533 | 27 | 12 | 6.4 | 8.0 | 0.00 | 0.00 | 0.00 | 43 | 1015.8 |
| 20260507195031 | 26 | 241 | 4.8 | 6.4 | 0.00 | 0.00 | 0.00 | 43 | 1015.7 |
| 20260507194527 | 26 | 247 | 4.8 | 6.4 | 0.00 | 0.00 | 0.00 | 46 | 1015.9 |
| 20260507194023 | 26 | 5 | 1.6 | 3.2 | 0.00 | 0.00 | 0.00 | 45 | 1016.1 |